Extreme weather reports worldwide

High winds

Station
 
Location
 
Name
 
Wind
Knots
Gust
Knots
Vis
SM
Temp/Dew
C
Baro
inHg
METAR
 
KMWN 43 54 0 5/5 KMWN 232152Z 29043G54KT 0SM FG VV000 05/05 RMK
EHQE 35 6.21 17/14 29.35 EHQE 232155Z AUTO 17035KT 9999 FEW012 BKN015CB BKN019 17/14 Q0994
ANX ENAN Andenes, NO Andøya Airport 35 48 6.21 6/3 29.32 ENAN 232220Z AUTO 27035G48KT 9999 BKN020/// OVC034/// 06/03 Q0993
TOS ENTC Tromsø, NO Tromsø Airport 35 6.21 7/4 29.14 ENTC 232220Z 22035KT 9999 -SHRA BKN033 07/04 Q0987 RMK WIND 2600FT 23039G55KT
EHPG 34 2.11 16/14 29.38 EHPG 232155Z AUTO 22034KT 3400 -RA FEW011 BKN015CB 16/14 Q0995 RERA REDZ

Station
 
Location
 
Name
 
Wind
Knots
Gust
Knots
Vis
SM
Temp/Dew
C
Baro
inHg
METAR
 
CZF PACZ Cape Romanzof, US Cape Romanzof LRRS Airport 34 41 10 5/0 29.61 PACZ 232200Z AUTO 02034G41KT 10SM BKN024 05/00 A2961 RMK AO2 SLP030
ENUG 33 10/7 28.97 ENUG 232220Z AUTO 23033KT 9999NDV -SHRA OVC037/// 10/07 Q0981 RESHRA W///S3
EHMG 31 4.97 17/16 29.41 EHMG 232155Z AUTO 20031KT 8000 -SHRA FEW010 BKN015CB BKN041 17/16 Q0996 REDZ
PUQ SCCI Punta Arenas, CL Pdte. Carlos Ibañez del Campo Airport 31 42 6.21 10/2 29.41 SCCI 232200Z 30031G42KT 9999 FEW028 BKN064 10/02 Q0996 NOSIG
ENQA NO Troll A Platform 31 10/5 29.41 ENQA 232220Z AUTO 02031KT 9999NDV BKN150/// 10/05 Q0996 W09/S4
CWNH 30 16/11 CWNH 232200Z AUTO 00030KT 17/11 RMK AO1 SLP026 T01670114 53014
RGA SAWE Rio Grande, AR Hermes Quijada International Airport 30 40 6.21 12/3 29.38 SAWE 232200Z 29030G40KT 9999 SCT020 12/03 Q0995
CWGT 29 14/12 CWGT 232200Z AUTO 11029KT 14/13 RMK AO1 PK WND 11037/2104 SLP998 T01410127 56022
OOK PAOO Toksook Bay, US Toksook Bay Airport 28 31 10 6/0 29.63 PAOO 232156Z AUTO 33028G31KT 10SM BKN029 07/00 A2963 RMK AO2 PK WND 33031/2155 SLP039 T00670000 TSNO
ENLE 28 6.21 11/10 29.26 ENLE 232220Z 04028KT 9999 SCT010 BKN035 11/10 Q0991 W15/S4
ENQC NO Troll C Platform 28 11/4 29.41 ENQC 232220Z AUTO 02028KT 9999NDV BKN160/// 11/04 Q0996 W///S4
KVOA 28 3 27/22 29.88 KVOA 232220Z AUTO 13028KT 3SM HZ OVC027 27/22 A2988 RMK A01
EHMA 27 3.11 16/14 29.41 EHMA 232155Z AUTO 19027KT 5000 -RA FEW002 BKN015CB 16/14 Q0996 RERA REDZ
CWZQ 27 34 12/11 CWZQ 232220Z AUTO 28027G34KT 13/11 RMK AO1 T01280110
ENOA NO Oseberg A Platform 27 6.21 10/4 29.44 ENOA 232220Z 02027KT 9999 FEW027 BKN180 10/04 Q0997 W///S4
EHKV 26 6.21 18/15 29.35 EHKV 232155Z AUTO 22026KT 9999 FEW013 18/15 Q0994
EHSC NL Lichteiland Goeree 26 6.21 17/15 29.41 EHSC 232155Z AUTO 23026KT 9999 ///////// 17/15 Q0996 W18/H13
ONP KONP Newport, US Newport Municipal Airport 26 36 1.5 16/16 29.84 KONP 232215Z AUTO 20026G36KT 1 1/2SM RA OVC007 16/16 A2984 RMK AO2 P0003
NUW KNUW Oak Harbor, US Whidbey Island Naval Air Station (Ault Field) 25 33 10 17/13 29.69 KNUW 232156Z 15025G33KT 10SM -RA BKN020 BKN055 OVC100 18/14 A2969 RMK AO2 PK WND 15038/2102 SLP052 P0001 T01780139
NLG PAOU Nelson Lagoon, US Nelson Lagoon Airport 25 30 8 8/5 29.48 PAOU 232156Z AUTO 02025G30KT 8SM BKN022 OVC029 09/05 A2948 RMK AO2 PK WND 02031/2128 SLP983 T00890050 PNO $
EHM PAEH Cape Newenham, US Cape Newenham LRRS Airport 25 30 10 6/3 29.48 PAEH 232157Z AUTO 35025G30KT 10SM OVC015 06/03 A2948 RMK AO2 SLP988
CWEP 25 30 / CWEP 232200Z AUTO 27025G30KT RMK AO1 1043 PK WND 27039/2113 50011
YJT CYJT Stephenville, CA Stephenville Airport 25 31 4 14/13 29.06 CYJT 232200Z 23025G31KT 4SM -RA BR SCT009 OVC013 14/13 A2906 RMK SF4SF4 PRESRR SLP843 DENSITY ALT 1000FT
YGR CYGR ÃŽles-de-la-Madeleine, CA ÃŽles-de-la-Madeleine Airport 25 34 6 11/11 29.26 CYGR 232207Z 30025G34KT 6SM -RA BR OVC010 11/11 A2926 RMK SC8 SLP909 DENSITY ALT 400FT
YAZ CYAZ Tofino, CA Tofino / Long Beach Airport 25 32 3 15/15 29.52 CYAZ 232219Z 15025G32KT 3SM +RA OVC009 15/15 A2952 RMK NS8 SLP997 DENSITY ALT 600FT
OODQ 24 6.21 25/23 29.62 OODQ 232150Z AUTO 22024KT 9999 R22///// OVC006 25/23 Q1003 NOSIG RMK RH89? 0
CWGR 24 30 11/10 CWGR 232200Z AUTO 29024G30KT 11/10 RMK AO1 1069 PK WND 30032/2142 SLP906 T01140103 50004
YZS CYZS Coral Harbour, CA Coral Harbour Airport 24 33 15 1/-2 29.74 CYZS 232200Z 02024G33KT 15SM BKN020 OVC120 01/M02 A2974 RMK SC7AC1 SLP078
K0CO 24 32 10 8/-2 30.62 K0CO 232215Z AUTO 30024G32KT 10SM CLR 08/M02 A3062 RMK AO2 PWINO
HVG ENHV Honningsvåg, NO Valan Airport 23 38 6.21 9/6 29.08 ENHV 232120Z 19023G38KT 150V230 9999 -RA BKN017 09/06 Q0985
MEH ENMH Mehamn, NO Mehamn Airport 23 6.21 9/5 29.08 ENMH 232150Z 16023KT 9999 FEW026 09/05 Q0985
EHSA NL Europlatform 23 3.73 15/14 29.41 EHSA 232155Z AUTO 21023KT 6000 -RA ///////// 15/14 Q0996 RERA REDZ W17/H15
CWRN 23 29 13/10 CWRN 232200Z AUTO 29023G29KT 13/10 RMK AO1 PK WND 29031/2148 SLP952 T01340100 53043
CWRO 23 14/13 CWRO 232200Z AUTO 14023KT 15/14 RMK AO1 PK WND 14027/2109 SLP911 T01460137 50004
CWRU 23 15/13 CWRU 232200Z AUTO 12023KT 15/14 RMK AO1 PK WND 13032/2108 SLP956 T01500138
PDL LPPD Ponta Delgada, PT João Paulo II Airport 23 35 6.21 18/13 30.21 LPPD 232200Z 03023G35KT 9999 FEW012 SCT016 18/13 Q1023 WS R30
LPB SLLP La Paz / El Alto, BO El Alto International Airport 23 35 6.21 13/-26 30.68 SLLP 232200Z 10023G35KT 9999 FEW017 13/M26 Q1039
PER YPPH Perth, AU Perth International Airport 23 36 6.21 13/6 30.06 YPPH 232200Z 09023G36KT CAVOK 13/06 Q1018 FM2200 MOD TURB BLW 5000FT
KS39 23 35 10 25/4 29.94 KS39 232215Z AUTO 22023G35KT 10SM 25/04 A2994 RMK AO2
YYT CYYT St. John's, CA St. John's International Airport 23 31 15 18/17 29.48 CYYT 232217Z 20023G31KT 15SM BKN012 18/17 A2948 RMK SF7 SLP987 DENSITY ALT 1500FT
ENLA NO Ula Platform 23 11/10 29.29 ENLA 232220Z AUTO 02023KT 8000NDV -RA BKN009/// 11/10 Q0992 W///S4
SDP PASD Sand Point, US Sand Point Airport 22 30 10 10/2 29.43 PASD 232156Z 33022G30KT 10SM SCT022 BKN039 10/03 A2943 RMK AO2 PK WND 32030/2147 SLP968 T01000028 PNO $
CWLP 22 12/ CWLP 232200Z AUTO 12022KT 13/ RMK AO1 6011 PK WND 11030/2125 SLP958 T0127 50008
CWUW 22 30 -3/-5 29.86 CWUW 232200Z AUTO 08022G30KT ////SM BKN015 M03/M05 A2986
CWWL 22 13/12 CWWL 232200Z AUTO 15022KT 14/12 RMK AO1 8007 PK WND 14026/2150 SLP913 T01350121 50018